Aérodrome :
LOGIN :

S'inscrire | Disclaimer

   EN    FR    IT 

 










Légende :    VFR   VFR Marginal   IFR   IFR Intensif   IFR Très Intensif
Visi : 
Plafond : 
>= 8 km
>= 3000ft
5 à 8 km
1000 à 3000 ft
1500m à 5 km
500 à 1000 ft
800 à 1500m
200 à 500 ft
< 800m
< 200 ft
Symboles :   Orages  Brouillard  Fortes neiges  Fortes précipitations  Vent > 20 kt
SIGMETs :   Divers  Orages  Givrage  Turbulence  Onde Orograph.  Cendres Volcan.







- Altitude de l'aérodrome : 138 ft
- Code IATA : BIO


LEBB - Bilbao

DERNIER METAR :
  • 301200Z 21007KT 140V270 CAVOK 24/07 Q1019 NOSIG

METARs EXPIRÉS :
  • 301130Z 20010KT 150V240 CAVOK 24/08 Q1019 NOSIG
  • 301100Z 19012KT 150V250 CAVOK 24/08 Q1019 NOSIG
  • 301030Z 17010KT 120V220 CAVOK 24/08 Q1020 NOSIG
  • 301000Z VRB02KT CAVOK 23/09 Q1020 NOSIG
  • 300930Z 14007KT 080V210 CAVOK 22/08 Q1020 NOSIG

TAF TAF LEBB
Valide du 30 à 12h jusqu'au 31 à 12h UTC


301100Z 3012/3112 18009KT 9999 FEW050 TX26/3015Z TN10/3106Z
PROB40
TEMPO 3012/3015 18015G25KT
PROB40
TEMPO 3103/3112 RA SHRA SCT030TCU
TEMPO 3109/3112 36012KT
Pas de NOTAMs connus pour ce terrain.



MET'MAP, la Météo Aéronautique d'un coup d'oeil ! - Copyright ORBIFLY Décembre 2007 - Disclaimer

ORBIFLY MET'MAP TEAM :

Programmation & Développement : Alexandra Zaïnal
Conception & Développement : Baudouin d'Aumeries
Co-Programmation & Développement : Marc-Olivier Méhu
Soutien technique & logistique : Manuel Goepfert

Contact : metmap@orbifly.com




SOURCES & CREDITS :

   NOAA